KSSI

McKinnon St Simons Island Airport

Brunswick, Georgia, USA
METAR KSSI 231053Z AUTO 36006KT 10SM FEW049 OVC080 19/18 A3014 RMK AO2 RAE23 SLP206 P0000 T01940178
Observed Flight Rules
Oct-23 @ 10:53 UTC (58 minutes ago) Visual Flight Rules
Wind Visibility Clouds
360° at 6 knots 10 miles
  • Few at 4,900' AGL
  • Overcast at 8,000' AGL
Temperatures Readings Precipitation
Current 19°C / 66°F
Dewpoint 18°C / 64°F
Humidity 94%
Altimeter 30.14" Hg
Pressure 1020.6 hPa
Elevation 6
Current Rain 0.005
METAR KSSI 231053Z AUTO 36006KT 10SM FEW049 OVC080 19/18 A3014 RMK AO2 RAE23 SLP206 P0000 T01940178
Observed Flight Rules
Oct-23 @ 10:53 UTC
(58 minutes ago)
VFR
Wind Visibility
360° at 6 knots 10 miles
Clouds
  • Few at 4,900' AGL
  • Overcast at 8,000' AGL
Temperature Dewpoint
19°C / 66°F 18°C / 64°F
Humidity Altimeter Pressure
94% 30.14" Hg 1020.6 hPa
Current Rain
0.005